TNCE/EUX METAR and TAF weather

Enter ICAO airport designator
Station Type Date Time Source
TNCE METAR 2020/02/20 18:55 UTC NOAA

TNCE 201855Z AUTO 07016KT 040V100 //// // ///////// 28/19 Q1015 RE//


Station Type Date Time Source
TNCE Decoded METAR 2020/02/20 18:55 UTC NOAA

Roosevelt Airport Saint Eustatius, Netherlands Antilles (TNCE) 17-29N 062-59W 39M
Feb 20, 2020 - 01:55 PM EST / 2020.02.20 1855 UTC
Wind: from the ENE (070 degrees) at 18 MPH (16 KT) (direction variable):0
Temperature: 82 F (28 C)
Dew Point: 66 F (19 C)
Relative Humidity: 58%
Pressure (altimeter): 29.97 in. Hg (1015 hPa)
ob: TNCE 201855Z AUTO 07016KT 040V100 //// // ///////// 28/19 Q1015 RE//
cycle: 19

Station Type Date Time Source
TNCE TAF UTC NOAA

Error!

Example: see airport list